WEATHER DATA

YESTERDAY
Time Temp. Dewp. Hum. Bar.
00:17 2 -2.9 68 1024.9
00:27 2.2 -2.9 67 1024.9
00:37 2.1 -3 67 1024.9
00:47 2.1 -2.8 68 1024.8
00:57 2 -2.9 68 1024.7
01:08 2 -2.9 68 1024.6
01:17 1.9 -3 68 1024.7
01:37 1.7 -3.2 68 1024.7
01:48 1.6 -3.2 68 1024.6
01:58 1.4 -3.4 68 1024.5
02:18 1.2 -3.4 69 1024.2
02:28 1.1 -3.3 70 1024.2
02:38 1 -3.4 70 1024.1
02:48 1.1 -3.3 70 1024.1
02:59 1.1 -3.3 70 1023.9
03:08 1.1 -3.3 70 1023.9
03:18 1.2 -3.2 70 1023.8
03:29 1.2 -3.2 70 1023.8
03:39 1.2 -3.2 70 1023.7
03:49 1.2 -3.2 70 1023.6
03:58 1.2 -3.2 70 1023.4
04:09 1.1 -3.3 70 1023.4
04:19 1.2 -3.2 70 1023.1
04:29 1.3 -3.2 70 1023.1
04:39 1.4 -3.2 69 1023.2
04:49 1.4 -3.4 68 1023.2
04:59 1.4 -3.4 68 1023.1
05:09 1.3 -3.5 68 1023
05:20 1.3 -3.5 68 1022.9
05:30 1.2 -3.6 68 1022.9
05:50 1 -3.6 69 1022.6
06:00 1 -3.6 69 1022.5
06:10 1 -3.6 69 1022.4
06:20 1.1 -3.7 68 1022.4
06:31 1.1 -3.7 68 1022.3
06:40 1.3 -3.7 67 1022.3
06:50 1.3 -3.8 66 1022.3
07:00 1.4 -3.8 66 1022.1
07:11 1.3 -3.8 66 1022
07:21 1.3 -3.8 66 1021.9
07:30 1.4 -3.8 66 1021.8
07:41 1.5 -3.7 66 1021.8
07:51 1.5 -3.5 67 1021.9
08:01 1.5 -3.5 67 1022
08:11 1.6 -3.4 67 1022.4
08:21 1.6 -3.8 65 1022.3
08:31 1.7 -3.7 65 1022.1
08:41 2 -3.4 65 1021.9
08:52 2.1 -3.4 65 1021.8
09:02 2.5 -3.2 64 1021.8
09:11 2.8 -3.1 63 1021.7
09:21 3.1 -2.9 63 1021.6
09:32 3.4 -2.8 62 1021.7
09:42 3.5 -3.3 59 1021.7
09:52 3.6 -3.2 59 1021.6
10:02 3.7 -3.2 59 1021.5
10:12 3.8 -3.1 59 1021.4
10:22 4 -2.7 60 1021.3
10:32 4.2 -2.7 59 1021.3
10:43 4.7 -2.1 60 1021.3
10:53 4.9 -2.4 58 1021
11:02 5.2 -1.7 60 1021
11:13 5.4 -2.6 55 1021
11:23 5.5 -2.3 56 1021
11:33 5.5 -2.5 55 1021
11:43 5.5 -2.5 55 1020.9
11:53 5.3 -2.4 56 1020.8
12:03 4.6 -2.2 60 1020.6
12:13 4.7 -2.5 58 1020.5
12:23 4.9 -2.2 59 1020.5
12:34 5.5 -1.6 59 1020.3
12:43 5.7 -2.1 56 1020.2
12:53 5.7 -2.1 56 1019.8
13:04 5.6 -2.2 56 1019.9
13:14 5.7 -1.9 57 1019.8
13:24 5.5 -2.1 57 1019.6
13:33 5.3 -2.2 57 1019.5
13:44 5.1 -2.2 58 1019.2
13:54 4.8 -2.2 59 1019
14:04 4.8 -2.2 59 1018.8
14:15 4.7 -2.3 59 1018.9
14:25 4.4 -2.8 58 1018.8
14:34 4.2 -2.7 59 1018.6
14:44 4 -3.1 58 1018.5
14:55 3.9 -3 59 1018.4
15:05 3.7 -3.2 59 1018.3
15:15 3.6 -3.2 59 1018.3
15:25 3.4 -3.2 60 1018.2
15:35 3.2 -3.4 60 1018.1
15:45 3 -3.3 61 1017.6
15:55 2.8 -3.5 61 1017.5
16:06 2.7 -3.4 62 1017.3
16:15 2.6 -3.5 62 1017.3
16:25 2.4 -3.5 63 1017.2
16:36 2.2 -3.6 63 1017.3
16:46 1.8 -3.8 64 1017.1
16:56 1.6 -3.8 65 1017.4
17:06 1.5 -3.7 66 1017.4
17:16 1.4 -3.8 66 1017.1
17:26 1.4 -3.8 66 1017.1
17:36 1.5 -3.7 66 1016.9
17:46 1.6 -3.8 65 1016.8
17:57 1.6 -3.8 65 1016.7
18:06 1.6 -3.8 65 1016.7
18:16 1.6 -3.6 66 1016.6
18:27 1.4 -3.4 68 1016.7
18:37 1.2 -2.9 72 1016.6
18:47 0.8 -2.8 75 1016.5
18:57 0.8 -2.4 77 1016.5
19:07 0.6 -2.3 79 1016.3
19:27 0.4 -2.2 81 1016.3
19:38 0.3 -2.3 81 1016.1
19:48 0.4 -2.3 80 1016
19:57 0.4 -2.3 80 1016
20:07 0.4 -2.5 79 1016.1
20:18 0.4 -2.5 79 1016
20:28 0.4 -2.6 78 1016
20:38 0.4 -2.8 77 1016
20:48 0.5 -2.7 77 1016.1
20:58 0.5 -2.6 78 1016.1
21:08 0.4 -2.5 79 1016.1
21:18 0.2 -2.5 80 1016.1
21:29 0.1 -2.7 79 1016
21:38 0.1 -2.7 79 1015.8
21:48 0 -3 78 1015.7
21:58 0 -2.8 79 1015.5
22:09 -0.1 -2.9 79 1015.5
22:19 -0.1 -3.1 78 1015.4
22:29 -0.1 -3.1 78 1015.4
22:39 -0.2 -3 79 1015.3
22:49 -0.2 -3 79 1015.2
22:59 -0.2 -3 79 1015.2
23:09 -0.3 -3 80 1015
23:20 -0.4 -3.1 80 1015
23:29 -0.5 -3.3 79 1015
23:39 -0.6 -3.4 79 1014.8
23:50 -0.7 -3.5 79 1014.7

DAY STATISTIC

2018-11-18
TEMPERATURE
AVERAGE
2.1
HIGH
5.7
12:43
LOW
-0.7
23:50
PRESSURE
AVERAGE
1019.9
HIGH
1024.9
00:17
LOW
1014.7
23:50
DEWPOINT
AVERAGE
-3.0
HIGH
-1.6
12:34
LOW
-3.8
06:50
HUMIDITY
AVERAGE
67
HIGH
81
19:27
LOW
55
11:13
TEMPERATURE (°C)
LOW
-0.7
HIGH
5.7
AVERAGE
2.1
PRESSURE (hpa)
LOW
1014.7
HIGH
1024.9
AVERAGE
1019.9
DEVICE